Main page
METAR-TAF:

METAR-TAF

Airports :

Comodoro Arturo Merino Benítez International Airport

Santiago, Chile

latitude: 33-23S, longitude: 070-47W, elevation: 475 m

Current weather observation

The report was made 36 minutes ago, at 14:00 UTC
Wind 5 kt from the South, varying between South/Southeast and West/Southwest
Temperature 20°C
Humidity 40%
Pressure 1017 hPa
Visibility 10 km or more
no clouds below 1500 m and no cumulonimbus

METAR: SCEL 281400Z 19005KT 150V240 CAVOK 20/06 Q1017 NOSIG

Time: 11:36 (14:36 UTC)

Forecast

The report was made 4 hours and 25 minutes ago, at 10:11 UTC
Forecast valid from 28 at 12 UTC to 29 at 12 UTC
Wind 5 kt from the South
Visibility 10 km or more
no clouds below 1500 m and no cumulonimbus
Becoming
from 28 at 17 UTC to 28 at 19 UTC
Wind 18 kt from the Southwest
Becoming
from 29 at 01 UTC to 29 at 03 UTC
Wind 4 kt from the South/Southeast

TAF: SCEL 281011Z 2812/2912 18005KT CAVOK TX30/2819Z TN10/2910Z BECMG 2817/2819 22018KT BECMG 2901/2903 15004KT

Weather observations and forecasts of more than 4000 airports (METAR and TAF reports).

The available stations are represented by yellow and red dots on the map.

Hover mouse over dot to see the name of the station.

Then click to see weather observations and forecasts.

To change the map : click on the green buttons with a black cross to zoom in, on the green button with a dash to zoom out, or on the green arrows for adjacent maps.


METAR-TAF: